createdAt,value
2022-10-28T00:01:36.782Z,13.99
2022-10-28T00:04:03.137Z,14.05
2022-10-28T00:06:29.967Z,14.05
2022-10-28T00:08:56.285Z,14.07
2022-10-28T00:11:22.544Z,14.07
2022-10-28T00:13:48.808Z,14.05
2022-10-28T00:16:15.068Z,14.06
2022-10-28T00:18:41.323Z,14.00
2022-10-28T00:21:07.624Z,14.00
2022-10-28T00:23:33.883Z,14.01
2022-10-28T00:26:00.140Z,14.02
2022-10-28T00:28:26.400Z,14.00
2022-10-28T00:30:52.684Z,14.02
2022-10-28T00:33:18.943Z,14.06
2022-10-28T00:35:45.208Z,14.09
2022-10-28T00:38:11.453Z,14.08
2022-10-28T00:40:37.754Z,14.05
2022-10-28T00:43:04.026Z,14.05
2022-10-28T00:45:30.274Z,14.05
2022-10-28T00:47:56.858Z,14.09
2022-10-28T00:50:23.293Z,14.13
2022-10-28T00:52:49.705Z,14.19
2022-10-28T00:55:15.962Z,14.23
2022-10-28T00:57:42.210Z,14.26
2022-10-28T01:00:08.471Z,14.29
2022-10-28T01:02:34.769Z,14.31
2022-10-28T01:05:01.122Z,14.33
2022-10-28T01:07:27.367Z,14.33
2022-10-28T01:09:53.673Z,14.33
2022-10-28T01:12:19.923Z,14.31
2022-10-28T01:14:46.183Z,14.33
2022-10-28T01:17:12.442Z,14.34
2022-10-28T01:19:38.690Z,14.37
2022-10-28T01:22:04.944Z,14.40
2022-10-28T01:24:31.198Z,14.40
2022-10-28T01:26:57.544Z,14.46
2022-10-28T01:29:23.804Z,14.49
2022-10-28T01:31:50.105Z,14.52
2022-10-28T01:34:16.385Z,14.52
2022-10-28T01:36:46.034Z,14.53
2022-10-28T01:39:12.292Z,14.53
2022-10-28T01:41:38.539Z,14.53
2022-10-28T01:44:04.801Z,14.57
2022-10-28T01:46:31.085Z,14.59
2022-10-28T01:48:57.330Z,14.62
2022-10-28T01:51:23.659Z,14.62
2022-10-28T01:53:49.961Z,14.63
2022-10-28T01:56:16.223Z,14.60
2022-10-28T01:58:42.508Z,14.64
2022-10-28T02:01:08.893Z,14.64
2022-10-28T02:03:35.268Z,14.60
2022-10-28T02:06:01.556Z,14.60
2022-10-28T02:08:27.836Z,14.63
2022-10-28T02:10:54.087Z,14.66
2022-10-28T02:13:20.363Z,14.66
2022-10-28T02:15:46.606Z,14.66
2022-10-28T02:18:12.931Z,14.67
2022-10-28T02:20:39.176Z,14.74
2022-10-28T02:23:05.465Z,14.69
2022-10-28T02:25:31.714Z,14.73
2022-10-28T02:27:58.014Z,14.71
2022-10-28T02:30:24.320Z,14.67
2022-10-28T02:32:50.699Z,14.68
2022-10-28T02:35:17.110Z,14.69
2022-10-28T02:37:43.743Z,14.67
2022-10-28T02:40:09.992Z,14.69
2022-10-28T02:42:36.290Z,14.70
2022-10-28T02:45:02.802Z,14.64
2022-10-28T02:47:29.064Z,14.66
2022-10-28T02:49:55.399Z,14.67
2022-10-28T02:52:21.660Z,14.66
2022-10-28T02:54:47.938Z,14.66
2022-10-28T02:57:14.182Z,14.64
2022-10-28T02:59:40.451Z,14.60
2022-10-28T03:02:06.839Z,14.63
2022-10-28T03:04:33.188Z,14.65
2022-10-28T03:06:59.451Z,14.64
2022-10-28T03:09:25.706Z,14.61
2022-10-28T03:11:52.106Z,14.57
2022-10-28T03:14:18.346Z,14.66
2022-10-28T03:16:44.668Z,14.64
2022-10-28T03:19:10.937Z,14.64
2022-10-28T03:21:37.215Z,14.64
2022-10-28T03:24:03.496Z,14.60
2022-10-28T03:26:29.747Z,14.63
2022-10-28T03:28:56.007Z,14.65
2022-10-28T03:31:22.311Z,14.56
2022-10-28T03:33:48.648Z,14.59
2022-10-28T03:36:14.907Z,14.56
2022-10-28T03:38:41.199Z,14.54
2022-10-28T03:41:07.464Z,14.54
2022-10-28T03:43:33.705Z,14.55
2022-10-28T03:45:59.959Z,14.52
2022-10-28T03:48:26.245Z,14.51
2022-10-28T03:50:52.491Z,14.48
2022-10-28T03:53:18.745Z,14.47
2022-10-28T03:55:44.998Z,14.45
2022-10-28T03:58:11.249Z,14.46
2022-10-28T04:00:37.515Z,14.43
2022-10-28T04:03:03.773Z,14.43
2022-10-28T04:05:30.046Z,14.45
2022-10-28T04:07:56.331Z,14.44
2022-10-28T04:10:22.593Z,14.39
2022-10-28T04:12:48.844Z,14.41
2022-10-28T04:15:15.146Z,14.34
2022-10-28T04:17:41.398Z,14.35
2022-10-28T04:20:07.643Z,14.34
2022-10-28T04:22:34.070Z,14.35
2022-10-28T04:25:00.346Z,14.32
2022-10-28T04:27:26.676Z,14.35
2022-10-28T04:29:52.926Z,14.38
2022-10-28T04:32:19.177Z,14.36
2022-10-28T04:34:45.431Z,14.36
2022-10-28T04:37:11.693Z,14.34
2022-10-28T04:39:37.952Z,14.35
2022-10-28T04:42:04.203Z,14.30
2022-10-28T04:44:30.486Z,14.30
2022-10-28T04:46:56.934Z,14.32
2022-10-28T04:49:23.174Z,14.27
2022-10-28T04:51:49.428Z,14.31
2022-10-28T04:54:15.674Z,14.30
2022-10-28T04:56:41.926Z,14.26
2022-10-28T04:59:08.193Z,14.29
2022-10-28T05:01:34.689Z,14.29
2022-10-28T05:04:01.033Z,14.27
2022-10-28T05:06:27.294Z,14.27
2022-10-28T05:08:53.566Z,14.27
2022-10-28T05:11:19.877Z,14.28
2022-10-28T05:13:46.184Z,14.28
2022-10-28T05:16:12.447Z,14.23
2022-10-28T05:18:38.724Z,14.26
2022-10-28T05:21:05.074Z,14.25
2022-10-28T05:23:31.420Z,14.24
2022-10-28T05:25:57.665Z,14.24
2022-10-28T05:28:24.203Z,14.18
2022-10-28T05:30:50.475Z,14.18
2022-10-28T05:33:16.724Z,14.13
2022-10-28T05:35:43.102Z,14.13
2022-10-28T05:38:09.429Z,14.21
2022-10-28T05:40:35.743Z,14.15
2022-10-28T05:43:02.009Z,14.12
2022-10-28T05:47:59.498Z,14.15
2022-10-28T05:50:25.768Z,14.08
2022-10-28T05:52:52.038Z,14.10
2022-10-28T05:55:21.375Z,14.12
2022-10-28T05:57:47.665Z,14.11
2022-10-28T06:00:14.210Z,14.10
2022-10-28T06:02:40.464Z,14.16
2022-10-28T06:05:06.876Z,14.09
2022-10-28T06:07:34.739Z,14.15
2022-10-28T06:10:00.983Z,14.19
2022-10-28T06:12:25.730Z,14.17
2022-10-28T06:14:52.024Z,14.17
2022-10-28T06:17:18.278Z,14.17
2022-10-28T06:19:44.531Z,14.20
2022-10-28T06:22:14.333Z,14.16
2022-10-28T06:24:40.585Z,14.14
2022-10-28T06:29:57.126Z,14.20
2022-10-28T06:32:23.422Z,14.24
2022-10-28T06:34:49.712Z,14.22
2022-10-28T06:37:15.981Z,14.22
2022-10-28T06:39:44.162Z,14.24
2022-10-28T06:42:10.560Z,14.29
2022-10-28T06:44:36.835Z,14.30
2022-10-28T06:47:04.781Z,14.36
2022-10-28T06:49:31.038Z,14.39
2022-10-28T06:51:57.309Z,14.44
2022-10-28T06:54:23.578Z,14.50
2022-10-28T06:56:49.902Z,14.58
2022-10-28T06:59:16.299Z,14.64
2022-10-28T07:01:42.620Z,14.68
2022-10-28T07:04:08.932Z,14.78
2022-10-28T07:06:35.198Z,14.79
2022-10-28T07:09:01.512Z,14.88
2022-10-28T07:11:27.893Z,15.02
2022-10-28T07:13:54.227Z,15.09
2022-10-28T07:16:20.559Z,15.22
2022-10-28T07:18:46.807Z,15.37
2022-10-28T07:21:14.413Z,15.43
2022-10-28T07:23:40.662Z,15.60
2022-10-28T07:26:07.004Z,15.62
2022-10-28T07:28:33.263Z,15.61
2022-10-28T07:30:59.690Z,15.59
2022-10-28T07:33:26.002Z,15.78
2022-10-28T07:35:52.272Z,15.79
2022-10-28T07:38:18.569Z,15.76
2022-10-28T07:40:44.825Z,15.84
2022-10-28T07:43:11.144Z,15.86
2022-10-28T07:45:37.417Z,16.00
2022-10-28T07:48:03.714Z,16.10
2022-10-28T07:50:30.053Z,16.23
2022-10-28T07:52:56.713Z,16.22
2022-10-28T07:55:23.217Z,16.24
2022-10-28T07:57:49.474Z,16.25
2022-10-28T08:00:15.962Z,16.25
2022-10-28T08:02:42.420Z,16.38
2022-10-28T08:05:08.740Z,16.46
2022-10-28T08:07:38.439Z,16.53
2022-10-28T08:10:05.306Z,16.55
2022-10-28T08:12:31.568Z,16.54
2022-10-28T08:14:57.846Z,16.49
2022-10-28T08:17:26.467Z,16.34
2022-10-28T08:19:52.723Z,16.41
2022-10-28T08:22:18.993Z,16.55
2022-10-28T08:24:45.259Z,16.61
2022-10-28T08:27:11.548Z,16.77
2022-10-28T08:29:37.850Z,16.92
2022-10-28T08:32:04.112Z,16.89
2022-10-28T08:34:31.243Z,16.95
2022-10-28T08:36:57.685Z,16.88
2022-10-28T08:39:24.121Z,16.94
2022-10-28T08:41:51.817Z,17.09
2022-10-28T08:44:18.101Z,17.14
2022-10-28T08:46:44.387Z,17.12
2022-10-28T08:49:10.798Z,17.24
2022-10-28T08:51:37.053Z,17.10
2022-10-28T08:54:03.324Z,17.02
2022-10-28T08:56:29.596Z,17.10
2022-10-28T08:58:58.952Z,17.10
2022-10-28T09:01:25.316Z,17.07
2022-10-28T09:03:51.698Z,16.95
2022-10-28T09:06:18.032Z,17.03
2022-10-28T09:08:44.294Z,17.04
2022-10-28T09:11:10.579Z,17.01
2022-10-28T09:13:36.899Z,17.07
2022-10-28T09:16:03.160Z,17.08
2022-10-28T09:18:29.434Z,17.16
2022-10-28T09:20:55.714Z,17.24
2022-10-28T09:23:22.375Z,17.25
2022-10-28T09:25:48.801Z,17.24
2022-10-28T09:28:15.184Z,17.18
2022-10-28T09:30:41.458Z,17.32
2022-10-28T09:33:07.737Z,17.25
2022-10-28T09:35:34.156Z,17.51
2022-10-28T09:38:00.452Z,17.79
2022-10-28T09:40:26.748Z,17.93
2022-10-28T09:42:53.010Z,18.19
2022-10-28T09:45:19.268Z,18.35
2022-10-28T09:47:45.529Z,18.37
2022-10-28T09:50:11.929Z,18.28
2022-10-28T09:52:38.200Z,18.17
2022-10-28T09:55:04.464Z,18.11
2022-10-28T09:57:30.744Z,18.19
2022-10-28T09:59:57.036Z,18.06
2022-10-28T10:02:23.378Z,18.15
2022-10-28T10:04:50.806Z,17.99
2022-10-28T10:07:17.072Z,17.99
2022-10-28T10:09:43.373Z,18.00
2022-10-28T10:12:09.632Z,17.99
2022-10-28T10:14:35.908Z,17.87
2022-10-28T10:17:02.191Z,17.99
2022-10-28T10:19:28.499Z,18.10
2022-10-28T10:21:55.297Z,18.13
2022-10-28T10:24:21.586Z,17.94
2022-10-28T10:26:47.836Z,18.06
2022-10-28T10:29:14.115Z,18.04
2022-10-28T10:31:40.386Z,18.00
2022-10-28T10:34:06.653Z,17.96
2022-10-28T10:36:33.627Z,17.81
2022-10-28T10:38:59.890Z,17.90
2022-10-28T10:41:26.165Z,17.89
2022-10-28T10:43:52.438Z,18.04
2022-10-28T10:46:18.711Z,18.00
2022-10-28T10:48:45.130Z,18.00
2022-10-28T10:51:11.412Z,17.83
2022-10-28T10:53:37.715Z,17.83
2022-10-28T10:56:04.001Z,17.85
2022-10-28T10:58:30.273Z,17.92
2022-10-28T11:00:56.533Z,18.03
2022-10-28T11:03:22.839Z,18.05
2022-10-28T11:05:55.089Z,18.12
2022-10-28T11:08:33.018Z,18.00
2022-10-28T11:10:59.270Z,18.07
2022-10-28T11:13:25.535Z,17.96
2022-10-28T11:15:51.798Z,18.10
2022-10-28T11:18:20.612Z,18.02
2022-10-28T11:20:46.999Z,18.05
2022-10-28T11:23:13.259Z,18.06
2022-10-28T11:25:39.566Z,17.91
2022-10-28T11:28:05.825Z,17.79
2022-10-28T11:30:32.085Z,17.93
2022-10-28T11:33:14.785Z,17.92
2022-10-28T11:35:44.803Z,18.04
2022-10-28T11:38:11.116Z,17.99
2022-10-28T11:40:37.380Z,18.08
2022-10-28T11:43:03.648Z,18.12
2022-10-28T11:45:29.923Z,18.11
2022-10-28T11:47:56.744Z,18.16
2022-10-28T11:50:23.080Z,18.34
2022-10-28T11:52:49.367Z,18.38
2022-10-28T11:55:15.742Z,18.51
2022-10-28T11:57:42.292Z,18.62
2022-10-28T12:00:08.583Z,18.67
2022-10-28T12:02:35.219Z,18.65
2022-10-28T12:05:01.522Z,18.76
2022-10-28T12:07:27.802Z,18.70
2022-10-28T12:09:54.098Z,18.80
2022-10-28T12:12:20.554Z,18.91
2022-10-28T12:14:46.913Z,18.78
2022-10-28T12:17:17.737Z,18.94
2022-10-28T12:19:44.065Z,18.98
2022-10-28T12:22:10.362Z,19.17
2022-10-28T12:24:36.778Z,19.18
2022-10-28T12:27:03.306Z,19.09
2022-10-28T12:29:30.008Z,19.19
2022-10-28T12:31:56.342Z,19.05
2022-10-28T12:34:22.811Z,19.09
2022-10-28T12:36:49.118Z,19.13
2022-10-28T12:39:15.892Z,19.03
2022-10-28T12:44:13.318Z,19.10
2022-10-28T12:46:39.650Z,19.01
2022-10-28T12:49:05.972Z,19.06
2022-10-28T12:51:32.332Z,19.04
2022-10-28T12:53:58.627Z,19.12
2022-10-28T12:56:24.920Z,19.03
2022-10-28T12:58:51.279Z,18.96
2022-10-28T13:01:17.700Z,18.81
2022-10-28T13:03:44.078Z,18.82
2022-10-28T13:06:10.349Z,18.78
2022-10-28T13:08:36.666Z,18.77
2022-10-28T13:11:02.932Z,18.62
2022-10-28T13:13:29.243Z,18.65
2022-10-28T13:15:56.010Z,18.60
2022-10-28T13:18:22.388Z,18.64
2022-10-28T13:20:48.655Z,18.56
2022-10-28T13:23:14.930Z,18.63
2022-10-28T13:25:41.195Z,18.57
2022-10-28T13:28:08.554Z,18.61
2022-10-28T13:30:35.272Z,18.65
2022-10-28T13:33:01.547Z,18.52
2022-10-28T13:35:27.846Z,18.49
2022-10-28T13:37:54.495Z,18.67
2022-10-28T13:40:21.218Z,18.55
2022-10-28T13:42:47.555Z,18.55
2022-10-28T13:45:18.001Z,18.65
2022-10-28T13:47:44.270Z,18.77
2022-10-28T13:50:11.820Z,18.84
2022-10-28T13:52:38.121Z,18.72
2022-10-28T13:55:04.389Z,18.76
2022-10-28T13:57:31.117Z,18.74
2022-10-28T13:59:57.473Z,18.56
2022-10-28T14:02:39.425Z,18.52
2022-10-28T14:05:06.163Z,18.55
2022-10-28T14:07:32.454Z,18.45
2022-10-28T14:09:58.722Z,18.38
2022-10-28T14:12:25.030Z,18.45
2022-10-28T14:14:51.281Z,18.38
2022-10-28T14:17:17.547Z,18.34
2022-10-28T14:19:43.810Z,18.39
2022-10-28T14:22:10.214Z,18.36
2022-10-28T14:24:36.533Z,18.30
2022-10-28T14:27:02.844Z,18.32
2022-10-28T14:29:29.863Z,18.30
2022-10-28T14:31:56.049Z,18.24
2022-10-28T14:34:22.301Z,18.18
2022-10-28T14:36:48.893Z,18.13
2022-10-28T14:39:15.145Z,18.00
2022-10-28T14:41:41.506Z,18.04
2022-10-28T14:44:11.970Z,17.92
2022-10-28T14:46:38.230Z,17.90
2022-10-28T14:49:04.527Z,17.89
2022-10-28T14:51:30.803Z,17.82
2022-10-28T14:53:57.588Z,17.73
2022-10-28T14:58:55.064Z,17.72
2022-10-28T15:01:21.493Z,17.69
2022-10-28T15:03:47.862Z,17.62
2022-10-28T15:06:14.127Z,17.70
2022-10-28T15:08:40.404Z,17.64
2022-10-28T15:11:06.662Z,17.65
2022-10-28T15:13:32.936Z,17.58
2022-10-28T15:16:02.189Z,17.61
2022-10-28T15:18:31.041Z,17.58
2022-10-28T15:20:57.289Z,17.62
2022-10-28T15:23:23.642Z,17.63
2022-10-28T15:25:50.018Z,17.66
2022-10-28T15:28:16.277Z,17.62
2022-10-28T15:30:46.299Z,17.66
2022-10-28T15:33:13.201Z,17.61
2022-10-28T15:35:39.523Z,17.59
2022-10-28T15:38:05.805Z,17.63
2022-10-28T15:40:32.065Z,17.62
2022-10-28T15:42:58.425Z,17.55
2022-10-28T15:45:24.755Z,17.56
2022-10-28T15:47:51.022Z,17.52
2022-10-28T15:50:17.308Z,17.55
2022-10-28T15:52:43.584Z,17.57
2022-10-28T15:55:09.837Z,17.48
2022-10-28T15:57:36.109Z,17.56
2022-10-28T16:00:02.452Z,17.57
2022-10-28T16:02:28.928Z,17.58
2022-10-28T16:04:55.501Z,17.54
2022-10-28T16:07:21.766Z,17.51
2022-10-28T16:09:48.045Z,17.52
2022-10-28T16:12:14.299Z,17.51
2022-10-28T16:14:40.637Z,17.55
2022-10-28T16:17:07.023Z,17.51
2022-10-28T16:19:33.443Z,17.54
2022-10-28T16:21:59.711Z,17.49
2022-10-28T16:24:25.972Z,17.49
2022-10-28T16:26:52.239Z,17.48
2022-10-28T16:29:18.492Z,17.45
2022-10-28T16:31:44.745Z,17.49
2022-10-28T16:34:11.335Z,17.50
2022-10-28T16:36:37.585Z,17.47
2022-10-28T16:39:03.993Z,17.46
2022-10-28T16:41:30.258Z,17.48
2022-10-28T16:43:56.648Z,17.47
2022-10-28T16:46:22.956Z,17.48
2022-10-28T16:48:49.347Z,17.44
2022-10-28T16:51:16.406Z,17.47
2022-10-28T16:53:46.888Z,17.48
2022-10-28T16:56:14.904Z,17.47
2022-10-28T16:58:42.476Z,17.41
2022-10-28T17:01:09.175Z,17.44
2022-10-28T17:03:35.621Z,17.42
2022-10-28T17:06:01.894Z,17.40
2022-10-28T17:08:56.585Z,17.40
2022-10-28T17:11:14.415Z,17.38
2022-10-28T17:13:40.670Z,17.37
2022-10-28T17:16:07.086Z,17.38
2022-10-28T17:18:33.368Z,17.37
2022-10-28T17:21:00.597Z,17.36
2022-10-28T17:23:26.900Z,17.28
2022-10-28T17:25:53.165Z,17.37
2022-10-28T17:28:19.440Z,17.30
2022-10-28T17:30:45.698Z,17.25
2022-10-28T17:33:11.953Z,17.29
2022-10-28T17:35:38.215Z,17.33
2022-10-28T17:38:04.470Z,17.26
2022-10-28T17:40:32.018Z,17.25
2022-10-28T17:42:58.294Z,17.22
2022-10-28T17:45:24.551Z,17.20
2022-10-28T17:47:50.812Z,17.19
2022-10-28T17:50:17.151Z,17.23
2022-10-28T17:52:43.423Z,17.19
2022-10-28T17:55:09.753Z,17.14
2022-10-28T17:57:36.021Z,17.17
2022-10-28T18:00:02.298Z,17.11
2022-10-28T18:02:28.856Z,17.15
2022-10-28T18:04:55.173Z,17.17
2022-10-28T18:07:21.465Z,17.12
2022-10-28T18:09:47.718Z,17.11
2022-10-28T18:12:14.016Z,17.11
2022-10-28T18:14:40.282Z,17.10
2022-10-28T18:17:06.590Z,17.07
2022-10-28T18:19:32.950Z,17.08
2022-10-28T18:21:59.207Z,17.05
2022-10-28T18:24:26.142Z,17.06
2022-10-28T18:26:52.715Z,17.01
2022-10-28T18:29:18.977Z,17.05
2022-10-28T18:31:45.272Z,17.07
2022-10-28T18:34:13.808Z,17.03
2022-10-28T18:36:40.087Z,17.05
2022-10-28T18:39:07.101Z,17.06
2022-10-28T18:41:34.378Z,17.06
2022-10-28T18:44:00.684Z,17.02
2022-10-28T18:46:26.964Z,17.03
2022-10-28T18:48:56.692Z,17.03
2022-10-28T18:51:23.108Z,17.05
2022-10-28T18:53:49.368Z,17.09
2022-10-28T18:56:15.631Z,17.05
2022-10-28T18:58:41.913Z,17.07
2022-10-28T19:01:08.258Z,17.05
2022-10-28T19:03:34.642Z,17.02
2022-10-28T19:06:00.897Z,17.01
2022-10-28T19:08:27.156Z,17.01
2022-10-28T19:10:53.446Z,17.00
2022-10-28T19:13:19.700Z,16.99
2022-10-28T19:15:46.121Z,16.96
2022-10-28T19:18:14.219Z,16.99
2022-10-28T19:20:43.181Z,16.95
2022-10-28T19:23:09.487Z,16.97
2022-10-28T19:25:35.791Z,16.95
2022-10-28T19:28:02.062Z,16.95
2022-10-28T19:30:28.338Z,16.94
2022-10-28T19:32:54.942Z,16.94
2022-10-28T19:35:21.427Z,16.91
2022-10-28T19:37:47.694Z,16.92
2022-10-28T19:40:13.952Z,16.94
2022-10-28T19:42:40.354Z,16.92
2022-10-28T19:45:06.640Z,16.89
2022-10-28T19:47:33.062Z,16.81
2022-10-28T19:49:59.319Z,16.81
2022-10-28T19:52:25.581Z,16.87
2022-10-28T19:54:51.838Z,16.87
2022-10-28T19:57:18.104Z,16.79
2022-10-28T19:59:44.459Z,16.77
2022-10-28T20:02:11.113Z,16.80
2022-10-28T20:04:37.514Z,16.79
2022-10-28T20:07:03.787Z,16.77
2022-10-28T20:09:30.054Z,16.79
2022-10-28T20:11:56.322Z,16.71
2022-10-28T20:14:22.654Z,16.73
2022-10-28T20:16:49.188Z,16.73
2022-10-28T20:19:15.452Z,16.78
2022-10-28T20:21:41.827Z,16.75
2022-10-28T20:24:08.104Z,16.78
2022-10-28T20:26:34.410Z,16.85
2022-10-28T20:29:03.828Z,16.80
2022-10-28T20:34:20.794Z,16.80
2022-10-28T20:36:48.345Z,16.75
2022-10-28T20:39:15.178Z,16.74
2022-10-28T20:41:41.463Z,16.72
2022-10-28T20:44:07.726Z,16.66
2022-10-28T20:46:33.991Z,16.71
2022-10-28T20:49:00.899Z,16.71
2022-10-28T20:51:27.225Z,16.71
2022-10-28T20:53:53.500Z,16.72
2022-10-28T20:56:19.937Z,16.73
2022-10-28T20:58:46.204Z,16.73
2022-10-28T21:01:12.533Z,16.77
2022-10-28T21:03:40.902Z,16.76
2022-10-28T21:06:07.213Z,16.76
2022-10-28T21:08:33.539Z,16.72
2022-10-28T21:10:59.804Z,16.73
2022-10-28T21:13:26.066Z,16.70
2022-10-28T21:15:56.506Z,16.70
2022-10-28T21:18:24.053Z,16.66
2022-10-28T21:20:50.370Z,16.66
2022-10-28T21:23:16.659Z,16.59
2022-10-28T21:25:42.922Z,16.58
2022-10-28T21:28:09.186Z,16.62
2022-10-28T21:30:35.456Z,16.50
2022-10-28T21:33:01.725Z,16.53
2022-10-28T21:35:27.992Z,16.44
2022-10-28T21:37:54.544Z,16.40
2022-10-28T21:40:20.952Z,16.33
2022-10-28T21:42:47.220Z,16.38
2022-10-28T21:45:14.096Z,16.40
2022-10-28T21:47:41.357Z,16.26
2022-10-28T21:50:07.605Z,16.25
2022-10-28T21:52:33.881Z,16.28
2022-10-28T21:55:05.894Z,16.31
2022-10-28T21:57:41.247Z,16.27
2022-10-28T22:00:07.555Z,16.28
2022-10-28T22:02:33.963Z,16.24
2022-10-28T22:05:00.316Z,16.22
2022-10-28T22:07:26.577Z,16.19
2022-10-28T22:09:52.840Z,16.19
2022-10-28T22:12:19.118Z,16.21
2022-10-28T22:14:45.515Z,16.18
2022-10-28T22:17:11.773Z,16.15
2022-10-28T22:19:38.058Z,16.16
2022-10-28T22:22:04.321Z,16.16
2022-10-28T22:24:30.582Z,16.13
2022-10-28T22:26:56.859Z,16.12
2022-10-28T22:29:23.125Z,16.10
2022-10-28T22:31:49.456Z,16.11
2022-10-28T22:34:15.710Z,16.00
2022-10-28T22:36:43.577Z,16.01
2022-10-28T22:39:09.842Z,16.00
2022-10-28T22:41:36.153Z,15.97
2022-10-28T22:44:02.441Z,15.97
2022-10-28T22:46:28.709Z,16.00
2022-10-28T22:48:54.969Z,15.98
2022-10-28T22:51:21.223Z,15.93
2022-10-28T22:53:47.480Z,15.93
2022-10-28T22:56:13.733Z,15.82
2022-10-28T22:58:40.086Z,15.85
2022-10-28T23:01:06.386Z,15.77
2022-10-28T23:03:32.664Z,15.75
2022-10-28T23:05:58.939Z,15.75
2022-10-28T23:08:25.200Z,15.73
2022-10-28T23:10:51.458Z,15.73
2022-10-28T23:13:17.715Z,15.73
2022-10-28T23:15:44.131Z,15.76
2022-10-28T23:18:10.380Z,15.75
2022-10-28T23:20:37.119Z,15.61
2022-10-28T23:23:03.375Z,15.63
2022-10-28T23:25:29.808Z,15.68
2022-10-28T23:27:56.242Z,15.54
2022-10-28T23:30:22.681Z,15.60
2022-10-28T23:32:50.809Z,15.58
2022-10-28T23:35:17.061Z,15.54
2022-10-28T23:37:43.380Z,15.28
2022-10-28T23:42:41.608Z,15.34
2022-10-28T23:45:09.400Z,15.37
2022-10-28T23:47:35.664Z,15.38
2022-10-28T23:50:02.022Z,15.30
2022-10-28T23:52:28.564Z,15.36
2022-10-28T23:54:54.859Z,15.38
2022-10-28T23:57:21.154Z,15.40
2022-10-28T23:59:47.404Z,15.38
